KGRB

Green Bay-Austin Straubel International Airport

Green Bay, Wisconsin, USA
METAR KGRB 230753Z AUTO 25005KT 10SM CLR 16/14 A3008 RMK AO2 SLP186 T01560139
Observed Flight Rules
May-23 @ 07:53 UTC (57 minutes ago) Visual Flight Rules
Wind Visibility Clouds
250° at 5 knots 10 miles
  • Clear skies
Temperatures Readings
Current 16°C / 61°F
Dewpoint 14°C / 57°F
Humidity 88%
Altimeter 30.08" Hg
Pressure 1018.6 hPa
Elevation 208
METAR KGRB 230753Z AUTO 25005KT 10SM CLR 16/14 A3008 RMK AO2 SLP186 T01560139
Observed Flight Rules
May-23 @ 07:53 UTC
(57 minutes ago)
VFR
Wind Visibility
250° at 5 knots 10 miles
Clouds
  • Clear skies
Temperature Dewpoint
16°C / 61°F 14°C / 57°F
Humidity Altimeter Pressure
88% 30.08" Hg 1018.6 hPa